sensor_id;sensor_type;location;lat;lon;timestamp;temperature;humidity
16532;DHT22;8378;57.698;11.958;2022-08-19T00:01:51;25.80;55.10
16532;DHT22;8378;57.698;11.958;2022-08-19T00:04:19;25.70;55.10
16532;DHT22;8378;57.698;11.958;2022-08-19T00:06:47;25.70;55.20
16532;DHT22;8378;57.698;11.958;2022-08-19T00:09:16;25.70;55.20
16532;DHT22;8378;57.698;11.958;2022-08-19T00:11:43;25.70;55.10
16532;DHT22;8378;57.698;11.958;2022-08-19T00:14:11;25.70;55.20
16532;DHT22;8378;57.698;11.958;2022-08-19T00:16:38;25.60;55.10
16532;DHT22;8378;57.698;11.958;2022-08-19T00:19:05;25.60;55.20
16532;DHT22;8378;57.698;11.958;2022-08-19T00:21:30;25.70;55.20
16532;DHT22;8378;57.698;11.958;2022-08-19T00:23:57;25.60;55.20
16532;DHT22;8378;57.698;11.958;2022-08-19T00:26:24;25.70;55.20
16532;DHT22;8378;57.698;11.958;2022-08-19T00:28:50;25.60;55.10
16532;DHT22;8378;57.698;11.958;2022-08-19T00:31:16;25.60;55.10
16532;DHT22;8378;57.698;11.958;2022-08-19T00:33:42;25.60;55.10
16532;DHT22;8378;57.698;11.958;2022-08-19T00:36:09;25.60;55.30
16532;DHT22;8378;57.698;11.958;2022-08-19T00:38:36;25.60;55.30
16532;DHT22;8378;57.698;11.958;2022-08-19T00:41:02;25.60;55.30
16532;DHT22;8378;57.698;11.958;2022-08-19T00:43:28;25.60;55.30
16532;DHT22;8378;57.698;11.958;2022-08-19T00:45:54;25.50;55.30
16532;DHT22;8378;57.698;11.958;2022-08-19T00:48:20;25.50;55.30
16532;DHT22;8378;57.698;11.958;2022-08-19T00:50:48;25.60;55.30
16532;DHT22;8378;57.698;11.958;2022-08-19T00:53:16;25.50;55.30
16532;DHT22;8378;57.698;11.958;2022-08-19T00:55:49;25.50;55.40
16532;DHT22;8378;57.698;11.958;2022-08-19T00:58:19;25.50;55.40
16532;DHT22;8378;57.698;11.958;2022-08-19T01:00:46;25.50;55.40
16532;DHT22;8378;57.698;11.958;2022-08-19T01:03:16;25.50;55.40
16532;DHT22;8378;57.698;11.958;2022-08-19T01:05:44;25.40;55.40
16532;DHT22;8378;57.698;11.958;2022-08-19T01:08:11;25.40;55.50
16532;DHT22;8378;57.698;11.958;2022-08-19T01:10:43;25.40;55.40
16532;DHT22;8378;57.698;11.958;2022-08-19T01:13:11;25.40;55.50
16532;DHT22;8378;57.698;11.958;2022-08-19T01:15:43;25.40;55.60
16532;DHT22;8378;57.698;11.958;2022-08-19T01:18:11;25.40;55.50
16532;DHT22;8378;57.698;11.958;2022-08-19T01:20:39;25.40;55.50
16532;DHT22;8378;57.698;11.958;2022-08-19T01:23:05;25.40;55.50
16532;DHT22;8378;57.698;11.958;2022-08-19T01:25:39;25.40;55.70
16532;DHT22;8378;57.698;11.958;2022-08-19T01:28:06;25.40;55.60
16532;DHT22;8378;57.698;11.958;2022-08-19T01:30:34;25.40;55.60
16532;DHT22;8378;57.698;11.958;2022-08-19T01:33:00;25.40;55.70
16532;DHT22;8378;57.698;11.958;2022-08-19T01:35:28;25.40;55.80
16532;DHT22;8378;57.698;11.958;2022-08-19T01:38:07;25.40;55.70
16532;DHT22;8378;57.698;11.958;2022-08-19T01:40:37;25.40;55.80
16532;DHT22;8378;57.698;11.958;2022-08-19T01:43:04;25.40;55.80
16532;DHT22;8378;57.698;11.958;2022-08-19T01:45:32;25.30;55.70
16532;DHT22;8378;57.698;11.958;2022-08-19T01:47:59;25.30;55.80
16532;DHT22;8378;57.698;11.958;2022-08-19T01:50:25;25.40;55.90
16532;DHT22;8378;57.698;11.958;2022-08-19T01:52:52;25.40;56.00
16532;DHT22;8378;57.698;11.958;2022-08-19T01:55:21;25.40;56.00
16532;DHT22;8378;57.698;11.958;2022-08-19T01:57:52;25.30;56.00
16532;DHT22;8378;57.698;11.958;2022-08-19T02:00:21;25.30;56.00
16532;DHT22;8378;57.698;11.958;2022-08-19T02:02:47;25.30;56.00
16532;DHT22;8378;57.698;11.958;2022-08-19T02:05:13;25.30;56.10
16532;DHT22;8378;57.698;11.958;2022-08-19T02:07:40;25.30;56.10
16532;DHT22;8378;57.698;11.958;2022-08-19T02:10:10;25.30;56.10
16532;DHT22;8378;57.698;11.958;2022-08-19T02:12:37;25.20;56.20
16532;DHT22;8378;57.698;11.958;2022-08-19T02:15:03;25.30;56.20
16532;DHT22;8378;57.698;11.958;2022-08-19T02:17:29;25.20;56.30
16532;DHT22;8378;57.698;11.958;2022-08-19T02:19:55;25.20;56.40
16532;DHT22;8378;57.698;11.958;2022-08-19T02:22:22;25.20;56.40
16532;DHT22;8378;57.698;11.958;2022-08-19T02:24:48;25.20;56.30
16532;DHT22;8378;57.698;11.958;2022-08-19T02:27:14;25.20;56.30
16532;DHT22;8378;57.698;11.958;2022-08-19T02:29:40;25.20;56.40
16532;DHT22;8378;57.698;11.958;2022-08-19T02:32:06;25.20;56.30
16532;DHT22;8378;57.698;11.958;2022-08-19T02:34:32;25.20;56.20
16532;DHT22;8378;57.698;11.958;2022-08-19T02:36:57;25.20;56.20
16532;DHT22;8378;57.698;11.958;2022-08-19T02:39:23;25.20;56.30
16532;DHT22;8378;57.698;11.958;2022-08-19T02:41:49;25.20;56.20
16532;DHT22;8378;57.698;11.958;2022-08-19T02:44:16;25.20;56.20
16532;DHT22;8378;57.698;11.958;2022-08-19T02:46:42;25.20;56.20
16532;DHT22;8378;57.698;11.958;2022-08-19T02:49:10;25.20;56.20
16532;DHT22;8378;57.698;11.958;2022-08-19T02:51:39;25.10;56.10
16532;DHT22;8378;57.698;11.958;2022-08-19T02:54:06;25.20;56.20
16532;DHT22;8378;57.698;11.958;2022-08-19T02:56:35;25.10;56.10
16532;DHT22;8378;57.698;11.958;2022-08-19T02:59:01;25.20;56.20
16532;DHT22;8378;57.698;11.958;2022-08-19T03:01:29;25.10;56.00
16532;DHT22;8378;57.698;11.958;2022-08-19T03:04:00;25.10;56.10
16532;DHT22;8378;57.698;11.958;2022-08-19T03:06:27;25.10;56.10
16532;DHT22;8378;57.698;11.958;2022-08-19T03:08:53;25.10;56.20
16532;DHT22;8378;57.698;11.958;2022-08-19T03:11:30;25.10;56.10
16532;DHT22;8378;57.698;11.958;2022-08-19T03:13:57;25.10;56.10
16532;DHT22;8378;57.698;11.958;2022-08-19T03:16:24;25.10;56.10
16532;DHT22;8378;57.698;11.958;2022-08-19T03:18:51;25.10;56.10
16532;DHT22;8378;57.698;11.958;2022-08-19T03:21:21;25.10;56.00
16532;DHT22;8378;57.698;11.958;2022-08-19T03:23:49;25.10;55.90
16532;DHT22;8378;57.698;11.958;2022-08-19T03:26:15;25.10;56.00
16532;DHT22;8378;57.698;11.958;2022-08-19T03:28:43;25.10;55.90
16532;DHT22;8378;57.698;11.958;2022-08-19T03:31:12;25.10;55.90
16532;DHT22;8378;57.698;11.958;2022-08-19T03:33:39;25.10;56.00
16532;DHT22;8378;57.698;11.958;2022-08-19T03:36:14;25.10;55.90
16532;DHT22;8378;57.698;11.958;2022-08-19T03:38:46;25.00;55.90
16532;DHT22;8378;57.698;11.958;2022-08-19T03:41:16;25.10;55.90
16532;DHT22;8378;57.698;11.958;2022-08-19T03:43:43;25.10;55.90
16532;DHT22;8378;57.698;11.958;2022-08-19T03:46:12;25.00;55.90
16532;DHT22;8378;57.698;11.958;2022-08-19T03:48:40;25.10;55.90
16532;DHT22;8378;57.698;11.958;2022-08-19T03:51:06;25.10;56.50
16532;DHT22;8378;57.698;11.958;2022-08-19T03:53:34;25.00;55.90
16532;DHT22;8378;57.698;11.958;2022-08-19T03:56:00;25.00;55.80
16532;DHT22;8378;57.698;11.958;2022-08-19T03:58:28;25.00;55.80
16532;DHT22;8378;57.698;11.958;2022-08-19T04:00:55;25.00;55.80
16532;DHT22;8378;57.698;11.958;2022-08-19T04:03:22;25.00;55.90
16532;DHT22;8378;57.698;11.958;2022-08-19T04:05:48;25.00;55.90
16532;DHT22;8378;57.698;11.958;2022-08-19T04:08:14;25.00;55.80
16532;DHT22;8378;57.698;11.958;2022-08-19T04:10:40;25.00;55.90
16532;DHT22;8378;57.698;11.958;2022-08-19T04:13:07;25.00;55.80
16532;DHT22;8378;57.698;11.958;2022-08-19T04:15:39;24.90;55.70
16532;DHT22;8378;57.698;11.958;2022-08-19T04:18:10;24.90;55.50
16532;DHT22;8378;57.698;11.958;2022-08-19T04:20:45;24.90;55.50
16532;DHT22;8378;57.698;11.958;2022-08-19T04:23:12;24.90;55.40
16532;DHT22;8378;57.698;11.958;2022-08-19T04:25:41;24.90;55.40
16532;DHT22;8378;57.698;11.958;2022-08-19T04:28:08;24.90;55.40
16532;DHT22;8378;57.698;11.958;2022-08-19T04:30:54;24.90;55.40
16532;DHT22;8378;57.698;11.958;2022-08-19T04:33:22;24.90;55.40
16532;DHT22;8378;57.698;11.958;2022-08-19T04:35:50;24.90;55.30
16532;DHT22;8378;57.698;11.958;2022-08-19T04:38:18;24.90;55.40
16532;DHT22;8378;57.698;11.958;2022-08-19T04:40:49;24.90;55.50
16532;DHT22;8378;57.698;11.958;2022-08-19T04:43:35;24.80;55.50
16532;DHT22;8378;57.698;11.958;2022-08-19T04:46:09;24.80;55.70
16532;DHT22;8378;57.698;11.958;2022-08-19T04:48:35;24.80;55.80
16532;DHT22;8378;57.698;11.958;2022-08-19T04:51:01;24.70;55.70
16532;DHT22;8378;57.698;11.958;2022-08-19T04:53:34;24.80;55.90
16532;DHT22;8378;57.698;11.958;2022-08-19T04:56:05;24.80;55.90
16532;DHT22;8378;57.698;11.958;2022-08-19T04:58:32;24.70;55.90
16532;DHT22;8378;57.698;11.958;2022-08-19T05:00:58;24.70;56.00
16532;DHT22;8378;57.698;11.958;2022-08-19T05:03:25;24.70;56.00
16532;DHT22;8378;57.698;11.958;2022-08-19T05:05:51;24.70;56.10
16532;DHT22;8378;57.698;11.958;2022-08-19T05:08:19;24.70;56.20
16532;DHT22;8378;57.698;11.958;2022-08-19T05:10:50;24.70;56.30
16532;DHT22;8378;57.698;11.958;2022-08-19T05:13:18;24.70;56.40
16532;DHT22;8378;57.698;11.958;2022-08-19T05:15:44;24.70;56.50
16532;DHT22;8378;57.698;11.958;2022-08-19T05:18:18;24.70;56.50
16532;DHT22;8378;57.698;11.958;2022-08-19T05:21:09;24.70;56.70
16532;DHT22;8378;57.698;11.958;2022-08-19T05:23:54;24.70;56.70
16532;DHT22;8378;57.698;11.958;2022-08-19T05:26:19;24.70;56.70
16532;DHT22;8378;57.698;11.958;2022-08-19T05:28:45;24.70;56.60
16532;DHT22;8378;57.698;11.958;2022-08-19T05:31:10;24.70;56.70
16532;DHT22;8378;57.698;11.958;2022-08-19T05:33:36;24.70;56.70
16532;DHT22;8378;57.698;11.958;2022-08-19T05:36:03;24.70;56.70
16532;DHT22;8378;57.698;11.958;2022-08-19T05:38:28;24.70;56.70
16532;DHT22;8378;57.698;11.958;2022-08-19T05:40:55;24.70;56.70
16532;DHT22;8378;57.698;11.958;2022-08-19T05:43:21;24.80;56.80
16532;DHT22;8378;57.698;11.958;2022-08-19T05:45:46;24.80;56.80
16532;DHT22;8378;57.698;11.958;2022-08-19T05:48:13;24.80;56.80
16532;DHT22;8378;57.698;11.958;2022-08-19T05:50:40;24.80;56.80
16532;DHT22;8378;57.698;11.958;2022-08-19T05:53:06;24.80;56.80
16532;DHT22;8378;57.698;11.958;2022-08-19T05:55:34;24.90;56.80
16532;DHT22;8378;57.698;11.958;2022-08-19T05:58:00;24.80;56.70
16532;DHT22;8378;57.698;11.958;2022-08-19T06:00:27;24.90;57.00
16532;DHT22;8378;57.698;11.958;2022-08-19T06:02:53;24.90;56.90
16532;DHT22;8378;57.698;11.958;2022-08-19T06:05:19;24.90;56.80
16532;DHT22;8378;57.698;11.958;2022-08-19T06:07:45;24.90;56.90
16532;DHT22;8378;57.698;11.958;2022-08-19T06:10:11;24.90;56.90
16532;DHT22;8378;57.698;11.958;2022-08-19T06:12:37;24.90;56.80
16532;DHT22;8378;57.698;11.958;2022-08-19T06:15:12;24.90;56.70
16532;DHT22;8378;57.698;11.958;2022-08-19T06:17:39;24.90;56.70
16532;DHT22;8378;57.698;11.958;2022-08-19T06:20:09;24.90;56.60
16532;DHT22;8378;57.698;11.958;2022-08-19T06:22:45;24.90;56.60
16532;DHT22;8378;57.698;11.958;2022-08-19T06:25:13;24.90;56.70
16532;DHT22;8378;57.698;11.958;2022-08-19T06:27:39;24.90;56.60
16532;DHT22;8378;57.698;11.958;2022-08-19T06:30:06;25.00;56.70
16532;DHT22;8378;57.698;11.958;2022-08-19T06:32:31;25.00;56.80
16532;DHT22;8378;57.698;11.958;2022-08-19T06:34:57;25.00;56.80
16532;DHT22;8378;57.698;11.958;2022-08-19T06:37:23;25.00;56.90
16532;DHT22;8378;57.698;11.958;2022-08-19T06:39:49;25.00;57.00
16532;DHT22;8378;57.698;11.958;2022-08-19T06:42:16;25.00;57.00
16532;DHT22;8378;57.698;11.958;2022-08-19T06:44:45;25.00;57.10
16532;DHT22;8378;57.698;11.958;2022-08-19T06:47:14;25.00;57.10
16532;DHT22;8378;57.698;11.958;2022-08-19T06:49:41;25.00;57.10
16532;DHT22;8378;57.698;11.958;2022-08-19T06:52:07;25.00;57.70
16532;DHT22;8378;57.698;11.958;2022-08-19T06:54:33;25.00;57.20
16532;DHT22;8378;57.698;11.958;2022-08-19T06:56:59;25.00;57.30
16532;DHT22;8378;57.698;11.958;2022-08-19T06:59:27;25.00;57.20
16532;DHT22;8378;57.698;11.958;2022-08-19T07:01:56;25.00;57.30
16532;DHT22;8378;57.698;11.958;2022-08-19T07:04:25;25.10;57.40
16532;DHT22;8378;57.698;11.958;2022-08-19T07:07:04;25.00;57.30
16532;DHT22;8378;57.698;11.958;2022-08-19T07:09:32;25.00;57.30
16532;DHT22;8378;57.698;11.958;2022-08-19T07:11:58;25.10;57.20
16532;DHT22;8378;57.698;11.958;2022-08-19T07:14:26;25.10;57.20
16532;DHT22;8378;57.698;11.958;2022-08-19T07:16:54;25.10;57.20
16532;DHT22;8378;57.698;11.958;2022-08-19T07:19:22;25.10;57.20
16532;DHT22;8378;57.698;11.958;2022-08-19T07:21:50;25.10;57.30
16532;DHT22;8378;57.698;11.958;2022-08-19T07:24:18;25.10;57.20
16532;DHT22;8378;57.698;11.958;2022-08-19T07:26:44;25.10;57.10
16532;DHT22;8378;57.698;11.958;2022-08-19T07:29:11;25.10;57.20
16532;DHT22;8378;57.698;11.958;2022-08-19T07:31:36;25.10;57.90
16532;DHT22;8378;57.698;11.958;2022-08-19T07:34:08;25.10;57.10
16532;DHT22;8378;57.698;11.958;2022-08-19T07:36:37;25.10;57.10
16532;DHT22;8378;57.698;11.958;2022-08-19T07:39:08;25.20;57.10
16532;DHT22;8378;57.698;11.958;2022-08-19T07:41:34;25.20;57.30
16532;DHT22;8378;57.698;11.958;2022-08-19T07:44:00;25.20;57.40
16532;DHT22;8378;57.698;11.958;2022-08-19T07:46:34;25.10;57.20
16532;DHT22;8378;57.698;11.958;2022-08-19T07:49:00;25.20;57.40
16532;DHT22;8378;57.698;11.958;2022-08-19T07:51:26;25.20;57.20
16532;DHT22;8378;57.698;11.958;2022-08-19T07:53:52;25.20;57.30
16532;DHT22;8378;57.698;11.958;2022-08-19T07:56:19;25.20;57.30
16532;DHT22;8378;57.698;11.958;2022-08-19T07:58:47;25.30;57.30
16532;DHT22;8378;57.698;11.958;2022-08-19T08:01:17;25.30;57.30
16532;DHT22;8378;57.698;11.958;2022-08-19T08:03:43;25.30;57.40
16532;DHT22;8378;57.698;11.958;2022-08-19T08:06:27;25.30;57.20
16532;DHT22;8378;57.698;11.958;2022-08-19T08:09:13;25.40;57.40
16532;DHT22;8378;57.698;11.958;2022-08-19T08:12:07;25.40;57.40
16532;DHT22;8378;57.698;11.958;2022-08-19T08:14:45;25.40;57.40
16532;DHT22;8378;57.698;11.958;2022-08-19T08:17:14;25.40;57.20
16532;DHT22;8378;57.698;11.958;2022-08-19T08:19:41;25.50;57.40
16532;DHT22;8378;57.698;11.958;2022-08-19T08:22:08;25.50;57.40
16532;DHT22;8378;57.698;11.958;2022-08-19T08:24:35;25.50;57.20
16532;DHT22;8378;57.698;11.958;2022-08-19T08:27:01;25.50;57.20
16532;DHT22;8378;57.698;11.958;2022-08-19T08:29:30;25.50;57.20
16532;DHT22;8378;57.698;11.958;2022-08-19T08:31:56;25.60;57.10
16532;DHT22;8378;57.698;11.958;2022-08-19T08:34:23;25.60;57.00
16532;DHT22;8378;57.698;11.958;2022-08-19T08:36:49;25.60;56.90
16532;DHT22;8378;57.698;11.958;2022-08-19T08:39:18;25.60;56.90
16532;DHT22;8378;57.698;11.958;2022-08-19T08:44:22;25.70;56.80
16532;DHT22;8378;57.698;11.958;2022-08-19T08:46:58;25.70;56.70
16532;DHT22;8378;57.698;11.958;2022-08-19T08:49:48;25.80;56.70
16532;DHT22;8378;57.698;11.958;2022-08-19T08:52:26;25.80;56.60
16532;DHT22;8378;57.698;11.958;2022-08-19T08:54:58;25.90;56.50
16532;DHT22;8378;57.698;11.958;2022-08-19T09:02:49;26.00;56.10
16532;DHT22;8378;57.698;11.958;2022-08-19T09:05:15;26.00;56.00
16532;DHT22;8378;57.698;11.958;2022-08-19T09:07:53;26.10;55.90
16532;DHT22;8378;57.698;11.958;2022-08-19T09:10:43;26.10;55.70
16532;DHT22;8378;57.698;11.958;2022-08-19T09:15:40;26.20;55.60
16532;DHT22;8378;57.698;11.958;2022-08-19T09:18:10;26.20;55.40
16532;DHT22;8378;57.698;11.958;2022-08-19T09:20:36;26.20;55.30
16532;DHT22;8378;57.698;11.958;2022-08-19T09:23:02;26.30;55.30
16532;DHT22;8378;57.698;11.958;2022-08-19T09:25:28;26.30;55.10
16532;DHT22;8378;57.698;11.958;2022-08-19T09:27:55;26.30;55.10
16532;DHT22;8378;57.698;11.958;2022-08-19T09:30:26;26.30;55.00
16532;DHT22;8378;57.698;11.958;2022-08-19T09:32:53;26.30;55.00
16532;DHT22;8378;57.698;11.958;2022-08-19T09:35:25;26.40;55.10
16532;DHT22;8378;57.698;11.958;2022-08-19T09:37:51;26.40;55.00
16532;DHT22;8378;57.698;11.958;2022-08-19T09:40:18;26.40;54.90
16532;DHT22;8378;57.698;11.958;2022-08-19T09:42:45;26.40;54.90
16532;DHT22;8378;57.698;11.958;2022-08-19T09:45:13;26.40;55.50
16532;DHT22;8378;57.698;11.958;2022-08-19T09:47:39;26.40;55.30
16532;DHT22;8378;57.698;11.958;2022-08-19T09:50:06;26.40;55.40
16532;DHT22;8378;57.698;11.958;2022-08-19T09:52:33;26.40;55.30
16532;DHT22;8378;57.698;11.958;2022-08-19T09:55:04;26.40;55.30
16532;DHT22;8378;57.698;11.958;2022-08-19T09:57:30;26.50;55.40
16532;DHT22;8378;57.698;11.958;2022-08-19T09:59:55;26.40;55.30
16532;DHT22;8378;57.698;11.958;2022-08-19T10:02:21;26.50;55.10
16532;DHT22;8378;57.698;11.958;2022-08-19T10:04:47;26.50;55.10
16532;DHT22;8378;57.698;11.958;2022-08-19T10:07:31;26.50;55.00
16532;DHT22;8378;57.698;11.958;2022-08-19T10:09:56;26.50;54.90
16532;DHT22;8378;57.698;11.958;2022-08-19T10:12:22;26.50;54.80
16532;DHT22;8378;57.698;11.958;2022-08-19T10:14:48;26.60;54.90
16532;DHT22;8378;57.698;11.958;2022-08-19T10:17:16;26.60;54.80
16532;DHT22;8378;57.698;11.958;2022-08-19T10:19:42;26.60;54.70
16532;DHT22;8378;57.698;11.958;2022-08-19T10:22:08;26.60;54.60
16532;DHT22;8378;57.698;11.958;2022-08-19T10:24:36;26.60;54.50
16532;DHT22;8378;57.698;11.958;2022-08-19T10:27:02;26.60;54.50
16532;DHT22;8378;57.698;11.958;2022-08-19T10:29:30;26.60;54.50
16532;DHT22;8378;57.698;11.958;2022-08-19T10:31:57;26.70;54.50
16532;DHT22;8378;57.698;11.958;2022-08-19T10:34:24;26.70;54.50
16532;DHT22;8378;57.698;11.958;2022-08-19T10:36:50;26.70;54.50
16532;DHT22;8378;57.698;11.958;2022-08-19T10:39:16;26.70;54.40
16532;DHT22;8378;57.698;11.958;2022-08-19T10:41:42;26.70;54.30
16532;DHT22;8378;57.698;11.958;2022-08-19T10:44:11;26.70;54.30
16532;DHT22;8378;57.698;11.958;2022-08-19T10:46:39;26.70;54.20
16532;DHT22;8378;57.698;11.958;2022-08-19T10:49:08;26.80;54.20
16532;DHT22;8378;57.698;11.958;2022-08-19T10:51:34;26.80;54.10
16532;DHT22;8378;57.698;11.958;2022-08-19T10:54:19;26.80;54.10
16532;DHT22;8378;57.698;11.958;2022-08-19T10:56:45;26.80;54.00
16532;DHT22;8378;57.698;11.958;2022-08-19T10:59:19;26.80;54.00
16532;DHT22;8378;57.698;11.958;2022-08-19T11:01:46;26.80;53.90
16532;DHT22;8378;57.698;11.958;2022-08-19T11:04:12;26.90;53.90
16532;DHT22;8378;57.698;11.958;2022-08-19T11:06:39;26.90;53.90
16532;DHT22;8378;57.698;11.958;2022-08-19T11:09:06;26.90;53.80
16532;DHT22;8378;57.698;11.958;2022-08-19T11:11:33;26.90;53.70
16532;DHT22;8378;57.698;11.958;2022-08-19T11:14:05;27.00;53.80
16532;DHT22;8378;57.698;11.958;2022-08-19T11:16:30;27.00;53.70
16532;DHT22;8378;57.698;11.958;2022-08-19T11:18:58;27.00;53.80
16532;DHT22;8378;57.698;11.958;2022-08-19T11:21:29;27.00;54.10
16532;DHT22;8378;57.698;11.958;2022-08-19T11:24:02;27.10;54.20
16532;DHT22;8378;57.698;11.958;2022-08-19T11:26:29;27.10;54.10
16532;DHT22;8378;57.698;11.958;2022-08-19T11:28:56;27.10;54.20
16532;DHT22;8378;57.698;11.958;2022-08-19T11:31:28;27.10;54.20
16532;DHT22;8378;57.698;11.958;2022-08-19T11:34:01;27.10;54.20
16532;DHT22;8378;57.698;11.958;2022-08-19T11:36:27;27.10;54.30
16532;DHT22;8378;57.698;11.958;2022-08-19T11:38:54;27.10;54.30
16532;DHT22;8378;57.698;11.958;2022-08-19T11:41:21;27.10;55.10
16532;DHT22;8378;57.698;11.958;2022-08-19T11:43:49;27.10;54.30
16532;DHT22;8378;57.698;11.958;2022-08-19T11:46:16;27.10;54.30
16532;DHT22;8378;57.698;11.958;2022-08-19T11:48:42;27.10;54.30
16532;DHT22;8378;57.698;11.958;2022-08-19T11:51:12;27.10;54.30
16532;DHT22;8378;57.698;11.958;2022-08-19T11:53:38;27.10;54.20
16532;DHT22;8378;57.698;11.958;2022-08-19T11:56:05;27.10;54.30
16532;DHT22;8378;57.698;11.958;2022-08-19T11:58:31;27.10;54.30
16532;DHT22;8378;57.698;11.958;2022-08-19T12:00:57;27.10;54.30
16532;DHT22;8378;57.698;11.958;2022-08-19T12:03:23;27.10;54.30
16532;DHT22;8378;57.698;11.958;2022-08-19T12:05:49;27.10;54.40
16532;DHT22;8378;57.698;11.958;2022-08-19T12:08:16;27.10;54.10
16532;DHT22;8378;57.698;11.958;2022-08-19T12:10:42;27.10;53.90
16532;DHT22;8378;57.698;11.958;2022-08-19T12:13:11;27.10;54.10
16532;DHT22;8378;57.698;11.958;2022-08-19T12:15:40;27.10;54.30
16532;DHT22;8378;57.698;11.958;2022-08-19T12:18:07;27.10;54.40
16532;DHT22;8378;57.698;11.958;2022-08-19T12:20:37;27.10;54.40
16532;DHT22;8378;57.698;11.958;2022-08-19T12:23:04;27.10;54.50
16532;DHT22;8378;57.698;11.958;2022-08-19T12:25:30;27.10;54.60
16532;DHT22;8378;57.698;11.958;2022-08-19T12:27:57;27.10;54.60
16532;DHT22;8378;57.698;11.958;2022-08-19T12:30:23;27.10;54.60
16532;DHT22;8378;57.698;11.958;2022-08-19T12:32:49;27.10;54.60
16532;DHT22;8378;57.698;11.958;2022-08-19T12:35:17;27.10;54.50
16532;DHT22;8378;57.698;11.958;2022-08-19T12:37:45;27.10;54.60
16532;DHT22;8378;57.698;11.958;2022-08-19T12:40:12;27.10;54.60
16532;DHT22;8378;57.698;11.958;2022-08-19T12:42:39;27.10;54.60
16532;DHT22;8378;57.698;11.958;2022-08-19T12:45:12;27.20;54.60
16532;DHT22;8378;57.698;11.958;2022-08-19T12:47:39;27.10;54.50
16532;DHT22;8378;57.698;11.958;2022-08-19T12:50:05;27.20;54.60
16532;DHT22;8378;57.698;11.958;2022-08-19T12:52:35;27.20;54.50
16532;DHT22;8378;57.698;11.958;2022-08-19T12:55:08;27.20;54.50
16532;DHT22;8378;57.698;11.958;2022-08-19T12:57:34;27.20;54.50
16532;DHT22;8378;57.698;11.958;2022-08-19T13:00:09;27.20;54.30
16532;DHT22;8378;57.698;11.958;2022-08-19T13:02:44;27.20;54.20
16532;DHT22;8378;57.698;11.958;2022-08-19T13:05:12;27.20;54.00
16532;DHT22;8378;57.698;11.958;2022-08-19T13:07:39;27.20;53.90
16532;DHT22;8378;57.698;11.958;2022-08-19T13:10:08;27.20;54.00
16532;DHT22;8378;57.698;11.958;2022-08-19T13:12:34;27.20;54.00
16532;DHT22;8378;57.698;11.958;2022-08-19T13:14:59;27.20;53.80
16532;DHT22;8378;57.698;11.958;2022-08-19T13:17:26;27.20;53.80
16532;DHT22;8378;57.698;11.958;2022-08-19T13:19:52;27.20;53.80
16532;DHT22;8378;57.698;11.958;2022-08-19T13:22:18;27.20;53.80
16532;DHT22;8378;57.698;11.958;2022-08-19T13:24:43;27.20;53.80
16532;DHT22;8378;57.698;11.958;2022-08-19T13:27:09;27.20;53.80
16532;DHT22;8378;57.698;11.958;2022-08-19T13:29:34;27.20;53.60
16532;DHT22;8378;57.698;11.958;2022-08-19T13:32:19;27.20;53.50
16532;DHT22;8378;57.698;11.958;2022-08-19T13:35:04;27.20;53.50
16532;DHT22;8378;57.698;11.958;2022-08-19T13:37:30;27.10;53.20
16532;DHT22;8378;57.698;11.958;2022-08-19T13:40:19;27.20;53.20
16532;DHT22;8378;57.698;11.958;2022-08-19T13:42:49;27.10;53.20
16532;DHT22;8378;57.698;11.958;2022-08-19T13:45:17;27.10;53.70
16532;DHT22;8378;57.698;11.958;2022-08-19T13:47:46;27.10;53.10
16532;DHT22;8378;57.698;11.958;2022-08-19T13:50:14;27.10;53.10
16532;DHT22;8378;57.698;11.958;2022-08-19T13:52:40;27.10;53.10
16532;DHT22;8378;57.698;11.958;2022-08-19T13:55:08;27.10;53.10
16532;DHT22;8378;57.698;11.958;2022-08-19T13:57:34;27.10;53.10
16532;DHT22;8378;57.698;11.958;2022-08-19T14:00:03;27.10;53.00
16532;DHT22;8378;57.698;11.958;2022-08-19T14:02:28;27.10;52.80
16532;DHT22;8378;57.698;11.958;2022-08-19T14:04:54;27.10;52.40
16532;DHT22;8378;57.698;11.958;2022-08-19T14:07:20;27.10;52.10
16532;DHT22;8378;57.698;11.958;2022-08-19T14:09:49;27.10;52.00
16532;DHT22;8378;57.698;11.958;2022-08-19T14:12:19;27.10;51.90
16532;DHT22;8378;57.698;11.958;2022-08-19T14:14:44;27.10;51.90
16532;DHT22;8378;57.698;11.958;2022-08-19T14:17:10;27.10;51.90
16532;DHT22;8378;57.698;11.958;2022-08-19T14:19:36;27.10;51.70
16532;DHT22;8378;57.698;11.958;2022-08-19T14:22:01;27.10;51.60
16532;DHT22;8378;57.698;11.958;2022-08-19T14:24:30;27.10;51.40
16532;DHT22;8378;57.698;11.958;2022-08-19T14:26:58;27.10;51.70
16532;DHT22;8378;57.698;11.958;2022-08-19T14:29:24;27.10;51.90
16532;DHT22;8378;57.698;11.958;2022-08-19T14:31:49;27.10;51.80
16532;DHT22;8378;57.698;11.958;2022-08-19T14:34:15;27.10;51.40
16532;DHT22;8378;57.698;11.958;2022-08-19T14:36:40;27.10;51.40
16532;DHT22;8378;57.698;11.958;2022-08-19T14:39:07;27.10;51.40
16532;DHT22;8378;57.698;11.958;2022-08-19T14:41:33;27.10;51.80
16532;DHT22;8378;57.698;11.958;2022-08-19T14:43:58;27.10;51.60
16532;DHT22;8378;57.698;11.958;2022-08-19T14:46:27;27.10;51.40
16532;DHT22;8378;57.698;11.958;2022-08-19T14:48:53;27.10;51.40
16532;DHT22;8378;57.698;11.958;2022-08-19T14:51:21;27.10;51.50
16532;DHT22;8378;57.698;11.958;2022-08-19T14:53:47;27.10;51.60
16532;DHT22;8378;57.698;11.958;2022-08-19T14:56:18;27.10;51.50
16532;DHT22;8378;57.698;11.958;2022-08-19T14:58:45;27.10;51.80
16532;DHT22;8378;57.698;11.958;2022-08-19T15:01:11;27.10;51.90
16532;DHT22;8378;57.698;11.958;2022-08-19T15:03:38;27.10;51.70
16532;DHT22;8378;57.698;11.958;2022-08-19T15:06:06;27.10;52.20
16532;DHT22;8378;57.698;11.958;2022-08-19T15:08:34;27.10;51.60
16532;DHT22;8378;57.698;11.958;2022-08-19T15:11:01;27.00;51.30
16532;DHT22;8378;57.698;11.958;2022-08-19T15:13:28;27.00;51.60
16532;DHT22;8378;57.698;11.958;2022-08-19T15:15:54;27.10;51.80
16532;DHT22;8378;57.698;11.958;2022-08-19T15:18:20;27.10;51.70
16532;DHT22;8378;57.698;11.958;2022-08-19T15:20:48;27.10;51.50
16532;DHT22;8378;57.698;11.958;2022-08-19T15:23:15;27.10;51.40
16532;DHT22;8378;57.698;11.958;2022-08-19T15:25:41;27.10;51.60
16532;DHT22;8378;57.698;11.958;2022-08-19T15:28:07;27.00;51.30
16532;DHT22;8378;57.698;11.958;2022-08-19T15:30:34;27.00;51.30
16532;DHT22;8378;57.698;11.958;2022-08-19T15:33:00;27.00;51.50
16532;DHT22;8378;57.698;11.958;2022-08-19T15:35:27;27.00;51.20
16532;DHT22;8378;57.698;11.958;2022-08-19T15:37:54;27.00;51.10
16532;DHT22;8378;57.698;11.958;2022-08-19T15:40:22;27.00;51.20
16532;DHT22;8378;57.698;11.958;2022-08-19T15:42:48;27.00;51.50
16532;DHT22;8378;57.698;11.958;2022-08-19T15:45:15;27.00;51.20
16532;DHT22;8378;57.698;11.958;2022-08-19T15:47:41;27.00;51.30